createdAt,value
2023-05-19T00:01:45.530Z,52.22
2023-05-19T00:04:15.087Z,51.70
2023-05-19T00:06:44.880Z,51.76
2023-05-19T00:09:13.809Z,52.23
2023-05-19T00:11:42.946Z,51.83
2023-05-19T00:14:11.941Z,51.50
2023-05-19T00:16:42.282Z,52.00
2023-05-19T00:19:11.381Z,52.05
2023-05-19T00:21:40.483Z,52.31
2023-05-19T00:24:09.177Z,52.17
2023-05-19T00:26:37.688Z,52.39
2023-05-19T00:29:06.537Z,52.11
2023-05-19T00:31:58.033Z,52.41
2023-05-19T00:34:26.584Z,52.74
2023-05-19T00:36:54.766Z,52.56
2023-05-19T00:39:24.705Z,52.86
2023-05-19T00:41:53.176Z,52.36
2023-05-19T00:44:21.329Z,53.08
2023-05-19T00:46:49.875Z,53.00
2023-05-19T00:49:18.069Z,53.43
2023-05-19T00:51:46.464Z,53.34
2023-05-19T00:54:15.004Z,53.37
2023-05-19T00:56:43.593Z,53.66
2023-05-19T00:59:12.154Z,53.53
2023-05-19T01:01:40.975Z,53.73
2023-05-19T01:04:10.696Z,54.10
2023-05-19T01:06:39.250Z,53.82
2023-05-19T01:09:07.734Z,54.27
2023-05-19T01:11:36.174Z,54.57
2023-05-19T01:14:04.320Z,54.57
2023-05-19T01:16:45.109Z,55.25
2023-05-19T01:19:51.176Z,55.26
2023-05-19T01:22:44.345Z,55.99
2023-05-19T01:26:07.082Z,56.23
2023-05-19T01:29:10.139Z,56.31
2023-05-19T01:31:40.095Z,56.60
2023-05-19T01:34:08.812Z,56.40
2023-05-19T01:36:38.489Z,56.75
2023-05-19T01:39:07.204Z,56.80
2023-05-19T01:41:36.323Z,57.41
2023-05-19T01:44:05.063Z,57.72
2023-05-19T01:46:33.727Z,57.51
2023-05-19T01:49:02.448Z,57.83
2023-05-19T01:51:31.471Z,58.20
2023-05-19T01:54:10.854Z,57.97
2023-05-19T01:56:54.077Z,58.34
2023-05-19T01:59:50.250Z,58.40
2023-05-19T02:02:49.529Z,58.66
2023-05-19T02:05:30.633Z,58.65
2023-05-19T02:08:15.974Z,58.89
2023-05-19T02:10:51.819Z,58.61
2023-05-19T02:13:25.154Z,59.50
2023-05-19T02:15:58.382Z,59.11
2023-05-19T02:18:29.965Z,59.50
2023-05-19T02:20:58.565Z,59.37
2023-05-19T02:23:27.242Z,59.60
2023-05-19T02:25:55.674Z,59.92
2023-05-19T02:28:27.760Z,60.37
2023-05-19T02:30:56.268Z,60.50
2023-05-19T02:33:27.518Z,60.22
2023-05-19T02:35:56.563Z,60.25
2023-05-19T02:38:25.193Z,60.26
2023-05-19T02:40:53.974Z,60.51
2023-05-19T02:43:22.457Z,60.90
2023-05-19T02:45:51.365Z,60.98
2023-05-19T02:48:21.478Z,61.14
2023-05-19T02:50:50.022Z,61.21
2023-05-19T02:53:18.718Z,61.17
2023-05-19T02:55:47.226Z,61.30
2023-05-19T02:58:15.679Z,61.28
2023-05-19T03:00:45.319Z,61.37
2023-05-19T03:03:15.025Z,61.63
2023-05-19T03:05:43.785Z,61.24
2023-05-19T03:08:12.330Z,61.44
2023-05-19T03:10:44.413Z,61.59
2023-05-19T03:13:12.641Z,61.87
2023-05-19T03:15:42.522Z,61.99
2023-05-19T03:18:12.048Z,62.54
2023-05-19T03:20:42.504Z,62.52
2023-05-19T03:23:10.982Z,62.89
2023-05-19T03:25:39.441Z,62.55
2023-05-19T03:28:07.502Z,62.78
2023-05-19T03:30:35.684Z,62.99
2023-05-19T03:33:05.623Z,62.77
2023-05-19T03:35:35.842Z,63.29
2023-05-19T03:38:04.251Z,63.11
2023-05-19T03:40:32.545Z,63.56
2023-05-19T03:43:01.525Z,64.29
2023-05-19T03:45:30.338Z,64.28
2023-05-19T03:48:00.968Z,64.43
2023-05-19T03:50:31.740Z,64.91
2023-05-19T03:53:00.922Z,64.99
2023-05-19T03:55:30.177Z,65.18
2023-05-19T03:57:58.662Z,65.00
2023-05-19T04:00:26.827Z,65.50
2023-05-19T04:02:55.406Z,65.37
2023-05-19T04:05:24.024Z,65.90
2023-05-19T04:07:52.523Z,66.23
2023-05-19T04:10:21.207Z,66.24
2023-05-19T04:12:49.839Z,66.60
2023-05-19T04:15:18.335Z,66.79
2023-05-19T04:17:47.582Z,66.61
2023-05-19T04:20:16.050Z,66.47
2023-05-19T04:22:44.566Z,66.62
2023-05-19T04:25:13.338Z,66.93
2023-05-19T04:27:42.574Z,66.80
2023-05-19T04:30:11.254Z,66.45
2023-05-19T04:32:41.464Z,66.74
2023-05-19T04:35:22.954Z,66.63
2023-05-19T04:37:54.307Z,66.55
2023-05-19T04:40:24.009Z,66.80
2023-05-19T04:42:54.247Z,67.04
2023-05-19T04:45:23.362Z,67.09
2023-05-19T04:47:52.787Z,66.73
2023-05-19T04:50:21.904Z,66.85
2023-05-19T04:52:50.373Z,67.17
2023-05-19T04:55:18.900Z,66.96
2023-05-19T04:57:47.030Z,67.07
2023-05-19T05:00:15.840Z,66.78
2023-05-19T05:02:44.441Z,66.84
2023-05-19T05:05:13.004Z,66.80
2023-05-19T05:07:41.461Z,66.51
2023-05-19T05:10:10.640Z,66.79
2023-05-19T05:12:39.417Z,66.16
2023-05-19T05:15:08.604Z,66.55
2023-05-19T05:17:37.841Z,66.19
2023-05-19T05:20:07.020Z,66.13
2023-05-19T05:22:36.108Z,65.71
2023-05-19T05:25:05.319Z,65.61
2023-05-19T05:27:33.992Z,65.44
2023-05-19T05:30:02.455Z,65.70
2023-05-19T05:32:30.694Z,65.63
2023-05-19T05:34:59.375Z,65.25
2023-05-19T05:37:27.465Z,65.25
2023-05-19T05:39:56.075Z,64.89
2023-05-19T05:42:24.547Z,64.62
2023-05-19T05:44:53.050Z,63.73
2023-05-19T05:47:21.458Z,63.29
2023-05-19T05:49:52.114Z,63.29
2023-05-19T05:52:23.465Z,63.67
2023-05-19T05:54:51.885Z,63.27
2023-05-19T05:57:20.557Z,62.83
2023-05-19T05:59:49.320Z,62.63
2023-05-19T06:02:18.909Z,62.94
2023-05-19T06:04:47.439Z,62.31
2023-05-19T06:07:15.982Z,61.70
2023-05-19T06:09:44.137Z,61.42
2023-05-19T06:12:12.294Z,60.20
2023-05-19T06:14:40.761Z,60.33
2023-05-19T06:17:09.233Z,59.21
2023-05-19T06:19:37.413Z,59.09
2023-05-19T06:22:06.001Z,58.43
2023-05-19T06:24:34.482Z,57.85
2023-05-19T06:27:02.964Z,57.26
2023-05-19T06:29:31.443Z,57.31
2023-05-19T06:32:00.171Z,56.68
2023-05-19T06:34:28.683Z,57.37
2023-05-19T06:36:57.177Z,56.59
2023-05-19T06:39:26.313Z,56.75
2023-05-19T06:41:55.192Z,56.93
2023-05-19T06:44:24.249Z,56.65
2023-05-19T06:46:52.416Z,56.31
2023-05-19T06:49:21.036Z,56.08
2023-05-19T06:51:49.493Z,55.77
2023-05-19T06:54:17.943Z,56.20
2023-05-19T06:56:46.467Z,55.57
2023-05-19T06:59:16.288Z,54.27
2023-05-19T07:01:44.767Z,53.79
2023-05-19T07:04:13.390Z,53.83
2023-05-19T07:06:41.886Z,53.11
2023-05-19T07:09:10.494Z,52.34
2023-05-19T07:11:39.458Z,51.10
2023-05-19T07:14:07.962Z,51.25
2023-05-19T07:16:36.612Z,51.24
2023-05-19T07:19:05.233Z,50.95
2023-05-19T07:21:33.784Z,51.04
2023-05-19T07:24:02.238Z,50.63
2023-05-19T07:26:31.601Z,50.47
2023-05-19T07:29:00.201Z,50.42
2023-05-19T07:31:28.740Z,49.56
2023-05-19T07:33:57.927Z,49.47
2023-05-19T07:36:27.221Z,49.30
2023-05-19T07:38:56.216Z,47.61
2023-05-19T07:41:25.016Z,46.99
2023-05-19T07:43:53.675Z,47.19
2023-05-19T07:46:22.387Z,47.74
2023-05-19T07:48:51.148Z,47.35
2023-05-19T07:51:19.665Z,48.20
2023-05-19T07:53:48.228Z,48.08
2023-05-19T07:56:16.796Z,47.66
2023-05-19T07:58:45.613Z,46.97
2023-05-19T08:01:14.086Z,47.38
2023-05-19T08:03:42.630Z,46.26
2023-05-19T08:06:11.429Z,45.42
2023-05-19T08:08:39.962Z,44.93
2023-05-19T08:11:08.334Z,45.95
2023-05-19T08:13:36.840Z,46.11
2023-05-19T08:16:05.429Z,46.70
2023-05-19T08:18:34.012Z,46.74
2023-05-19T08:21:02.599Z,46.85
2023-05-19T08:23:31.066Z,46.53
2023-05-19T08:25:59.521Z,45.10
2023-05-19T08:28:39.166Z,44.48
2023-05-19T08:31:07.693Z,44.93
2023-05-19T08:33:36.191Z,45.25
2023-05-19T08:36:04.802Z,45.92
2023-05-19T08:38:33.319Z,46.34
2023-05-19T08:41:01.819Z,46.21
2023-05-19T08:43:30.389Z,46.07
2023-05-19T08:46:01.302Z,45.46
2023-05-19T08:48:32.438Z,46.33
2023-05-19T08:51:51.891Z,46.79
2023-05-19T08:54:22.468Z,46.68
2023-05-19T08:56:51.078Z,47.31
2023-05-19T08:59:21.635Z,46.68
2023-05-19T09:01:51.502Z,46.51
2023-05-19T09:04:20.319Z,44.63
2023-05-19T09:06:50.309Z,41.70
2023-05-19T09:09:18.792Z,42.45
2023-05-19T09:11:48.215Z,42.90
2023-05-19T09:14:16.649Z,43.39
2023-05-19T09:16:49.814Z,43.51
2023-05-19T09:19:18.585Z,45.04
2023-05-19T09:21:47.242Z,45.76
2023-05-19T09:24:15.764Z,45.47
2023-05-19T09:26:44.664Z,44.63
2023-05-19T09:29:17.906Z,44.30
2023-05-19T09:32:05.420Z,44.10
2023-05-19T09:34:36.094Z,44.80
2023-05-19T09:37:05.243Z,45.07
2023-05-19T09:39:33.767Z,45.12
2023-05-19T09:42:07.058Z,45.46
2023-05-19T09:44:36.754Z,45.41
2023-05-19T09:47:05.286Z,46.01
2023-05-19T09:49:33.978Z,45.83
2023-05-19T09:52:04.841Z,46.04
2023-05-19T09:54:34.860Z,46.24
2023-05-19T09:57:08.406Z,46.07
2023-05-19T09:59:38.953Z,45.12
2023-05-19T10:02:12.399Z,44.82
2023-05-19T10:04:41.330Z,44.96
2023-05-19T10:07:11.365Z,44.99
2023-05-19T10:09:40.001Z,44.96
2023-05-19T10:12:09.816Z,45.87
2023-05-19T10:14:38.763Z,45.16
2023-05-19T10:17:07.486Z,44.40
2023-05-19T10:19:36.492Z,45.96
2023-05-19T10:22:05.274Z,45.49
2023-05-19T10:28:41.154Z,43.83
2023-05-19T10:31:14.816Z,45.61
2023-05-19T10:34:25.871Z,45.45
2023-05-19T10:37:32.889Z,46.98
2023-05-19T10:40:01.730Z,46.38
2023-05-19T10:42:42.372Z,46.89
2023-05-19T10:45:23.838Z,47.01
2023-05-19T10:47:52.612Z,42.58
2023-05-19T10:50:21.951Z,40.70
2023-05-19T10:52:58.003Z,42.54
2023-05-19T10:55:59.053Z,43.59
2023-05-19T10:58:41.643Z,43.63
2023-05-19T11:01:16.605Z,43.35
2023-05-19T11:03:49.523Z,41.62
2023-05-19T11:06:29.677Z,41.06
2023-05-19T11:09:28.397Z,41.53
2023-05-19T11:12:05.058Z,41.60
2023-05-19T11:14:34.173Z,43.07
2023-05-19T11:17:02.884Z,43.43
2023-05-19T11:19:38.297Z,44.55
2023-05-19T11:22:14.902Z,44.05
2023-05-19T11:24:50.636Z,44.68
2023-05-19T11:27:40.245Z,44.58
2023-05-19T11:30:09.561Z,44.66
2023-05-19T11:32:39.346Z,44.55
2023-05-19T11:35:09.869Z,45.95
2023-05-19T11:37:40.446Z,44.92
2023-05-19T11:40:09.428Z,45.05
2023-05-19T11:42:38.450Z,45.38
2023-05-19T11:45:07.460Z,44.47
2023-05-19T11:47:45.905Z,44.25
2023-05-19T11:50:20.932Z,44.64
2023-05-19T11:52:49.395Z,43.95
2023-05-19T11:55:22.459Z,43.63
2023-05-19T11:58:03.960Z,42.47
2023-05-19T12:00:39.371Z,41.88
2023-05-19T12:03:09.113Z,41.92
2023-05-19T12:05:43.798Z,42.38
2023-05-19T12:08:13.407Z,42.89
2023-05-19T12:10:42.038Z,43.25
2023-05-19T12:13:11.117Z,43.29
2023-05-19T12:15:39.847Z,43.55
2023-05-19T12:18:08.683Z,43.44
2023-05-19T12:20:37.718Z,43.48
2023-05-19T12:23:07.656Z,43.94
2023-05-19T12:25:36.433Z,43.14
2023-05-19T12:28:05.486Z,42.88
2023-05-19T12:30:35.317Z,42.25
2023-05-19T12:33:04.627Z,42.52
2023-05-19T12:35:34.551Z,41.80
2023-05-19T12:38:06.731Z,41.77
2023-05-19T12:40:36.792Z,41.43
2023-05-19T12:43:05.637Z,41.72
2023-05-19T12:45:39.051Z,40.19
2023-05-19T12:48:12.908Z,40.67
2023-05-19T12:50:41.430Z,40.92
2023-05-19T12:53:11.976Z,41.24
2023-05-19T12:55:43.164Z,40.65
2023-05-19T12:58:13.175Z,40.39
2023-05-19T13:00:47.548Z,40.51
2023-05-19T13:03:22.058Z,41.03
2023-05-19T13:05:52.259Z,40.32
2023-05-19T13:08:24.058Z,40.74
2023-05-19T13:10:52.724Z,41.08
2023-05-19T13:13:22.085Z,40.95
2023-05-19T13:15:50.675Z,40.24
2023-05-19T13:18:19.789Z,40.72
2023-05-19T13:20:50.334Z,40.52
2023-05-19T13:23:19.390Z,40.43
2023-05-19T13:25:48.048Z,39.96
2023-05-19T13:28:16.576Z,39.96
2023-05-19T13:30:46.187Z,40.20
2023-05-19T13:33:15.214Z,39.91
2023-05-19T13:35:43.854Z,39.83
2023-05-19T13:38:12.495Z,40.54
2023-05-19T13:40:41.397Z,40.03
2023-05-19T13:43:10.249Z,39.76
2023-05-19T13:45:39.243Z,39.79
2023-05-19T13:48:08.618Z,39.54
2023-05-19T13:50:37.557Z,40.16
2023-05-19T13:53:06.078Z,40.15
2023-05-19T13:55:34.814Z,40.49
2023-05-19T13:58:03.560Z,40.33
2023-05-19T14:00:38.357Z,41.15
2023-05-19T14:03:12.532Z,41.55
2023-05-19T14:05:53.587Z,41.54
2023-05-19T14:08:27.553Z,40.69
2023-05-19T14:11:02.635Z,41.18
2023-05-19T14:13:40.931Z,41.82
2023-05-19T14:16:12.605Z,40.66
2023-05-19T14:18:45.506Z,40.93
2023-05-19T14:21:18.925Z,42.46
2023-05-19T14:23:57.868Z,43.86
2023-05-19T14:26:29.962Z,43.72
2023-05-19T14:29:10.735Z,44.41
2023-05-19T14:31:50.083Z,44.62
2023-05-19T14:34:21.346Z,45.98
2023-05-19T14:36:50.303Z,46.53
2023-05-19T14:39:30.659Z,46.83
2023-05-19T14:42:18.220Z,46.13
2023-05-19T14:44:50.284Z,46.57
2023-05-19T14:47:18.867Z,47.53
2023-05-19T14:49:47.792Z,47.73
2023-05-19T14:52:25.967Z,47.60
2023-05-19T14:54:56.188Z,46.93
2023-05-19T14:57:31.762Z,46.39
2023-05-19T15:00:00.359Z,45.95
2023-05-19T15:02:35.281Z,46.45
2023-05-19T15:05:26.202Z,46.71
2023-05-19T15:07:56.226Z,46.52
2023-05-19T15:10:33.760Z,46.75
2023-05-19T15:13:08.112Z,46.88
2023-05-19T15:15:40.231Z,47.48
2023-05-19T15:18:09.677Z,47.21
2023-05-19T15:20:38.979Z,47.35
2023-05-19T15:23:07.545Z,46.78
2023-05-19T15:25:36.058Z,46.80
2023-05-19T15:28:05.709Z,46.08
2023-05-19T15:30:34.661Z,46.38
2023-05-19T15:33:03.454Z,46.55
2023-05-19T15:35:32.145Z,46.25
2023-05-19T15:38:05.268Z,46.34
2023-05-19T15:40:34.818Z,46.45
2023-05-19T15:43:03.597Z,46.94
2023-05-19T15:45:32.076Z,47.15
2023-05-19T15:48:03.896Z,47.64
2023-05-19T15:50:33.176Z,47.59
2023-05-19T15:53:01.841Z,47.61
2023-05-19T15:55:30.720Z,47.67
2023-05-19T15:57:59.141Z,48.08
2023-05-19T16:00:27.606Z,47.96
2023-05-19T16:02:56.173Z,48.17
2023-05-19T16:05:24.962Z,47.71
2023-05-19T16:07:53.406Z,48.11
2023-05-19T16:10:22.003Z,47.65
2023-05-19T16:12:50.634Z,47.85
2023-05-19T16:15:19.344Z,48.17
2023-05-19T16:17:47.833Z,48.32
2023-05-19T16:20:17.014Z,48.43
2023-05-19T16:22:45.546Z,48.66
2023-05-19T16:25:14.091Z,48.94
2023-05-19T16:27:42.585Z,49.21
2023-05-19T16:30:11.806Z,49.04
2023-05-19T16:32:40.696Z,49.42
2023-05-19T16:35:09.934Z,49.51
2023-05-19T16:37:38.572Z,49.64
2023-05-19T16:40:07.781Z,49.64
2023-05-19T16:42:36.289Z,49.90
2023-05-19T16:45:08.911Z,49.97
2023-05-19T16:47:37.355Z,50.38
2023-05-19T16:50:06.594Z,50.58
2023-05-19T16:52:35.150Z,50.94
2023-05-19T16:55:03.729Z,51.17
2023-05-19T16:57:32.229Z,51.17
2023-05-19T17:00:00.804Z,51.25
2023-05-19T17:02:30.616Z,51.20
2023-05-19T17:04:59.623Z,51.34
2023-05-19T17:07:29.214Z,51.74
2023-05-19T17:09:57.597Z,51.72
2023-05-19T17:12:26.122Z,52.10
2023-05-19T17:14:54.774Z,52.42
2023-05-19T17:17:23.394Z,52.73
2023-05-19T17:19:52.251Z,52.97
2023-05-19T17:22:20.838Z,52.97
2023-05-19T17:24:49.334Z,53.07
2023-05-19T17:27:17.822Z,53.01
2023-05-19T17:29:52.158Z,53.06
2023-05-19T17:32:25.492Z,53.53
2023-05-19T17:34:54.489Z,53.68
2023-05-19T17:37:25.717Z,53.77
2023-05-19T17:39:54.502Z,53.83
2023-05-19T17:42:23.421Z,54.07
2023-05-19T17:44:52.133Z,54.51
2023-05-19T17:47:20.685Z,54.24
2023-05-19T17:49:50.343Z,54.22
2023-05-19T17:52:19.317Z,54.41
2023-05-19T17:54:47.988Z,54.57
2023-05-19T17:57:18.210Z,55.12
2023-05-19T17:59:47.087Z,55.11
2023-05-19T18:02:15.939Z,55.28
2023-05-19T18:04:44.809Z,55.33
2023-05-19T18:07:13.628Z,55.77
2023-05-19T18:09:46.791Z,56.45
2023-05-19T18:12:15.396Z,56.39
2023-05-19T18:14:43.994Z,56.65
2023-05-19T18:17:12.716Z,56.88
2023-05-19T18:19:41.189Z,57.11
2023-05-19T18:22:12.882Z,57.18
2023-05-19T18:24:41.484Z,57.60
2023-05-19T18:27:09.998Z,58.03
2023-05-19T18:29:39.381Z,58.17
2023-05-19T18:32:08.448Z,58.35
2023-05-19T18:34:37.043Z,58.30
2023-05-19T18:37:05.753Z,58.50
2023-05-19T18:39:34.314Z,58.66
2023-05-19T18:42:02.976Z,58.78
2023-05-19T18:44:31.722Z,59.03
2023-05-19T18:47:00.266Z,59.09
2023-05-19T18:49:28.735Z,59.50
2023-05-19T18:51:57.237Z,59.38
2023-05-19T18:54:25.839Z,59.67
2023-05-19T18:56:55.153Z,60.13
2023-05-19T18:59:24.565Z,60.17
2023-05-19T19:01:55.366Z,60.65
2023-05-19T19:04:24.379Z,60.70
2023-05-19T19:06:53.537Z,61.13
2023-05-19T19:09:21.843Z,61.06
2023-05-19T19:11:50.241Z,61.07
2023-05-19T19:14:19.454Z,61.49
2023-05-19T19:16:48.272Z,61.78
2023-05-19T19:19:17.201Z,61.98
2023-05-19T19:21:46.248Z,61.89
2023-05-19T19:24:15.045Z,62.03
2023-05-19T19:26:43.559Z,62.18
2023-05-19T19:29:12.302Z,62.52
2023-05-19T19:31:40.854Z,63.01
2023-05-19T19:34:09.594Z,63.19
2023-05-19T19:36:38.245Z,63.30
2023-05-19T19:39:06.787Z,62.99
2023-05-19T19:41:35.001Z,63.25
2023-05-19T19:44:03.538Z,63.12
2023-05-19T19:46:32.247Z,63.57
2023-05-19T19:49:02.325Z,63.61
2023-05-19T19:51:31.662Z,64.02
2023-05-19T19:54:00.542Z,64.16
2023-05-19T19:56:29.163Z,64.59
2023-05-19T19:58:59.341Z,64.55
2023-05-19T20:01:28.366Z,64.86
2023-05-19T20:03:57.638Z,65.44
2023-05-19T20:06:26.642Z,65.59
2023-05-19T20:08:55.192Z,65.90
2023-05-19T20:11:24.583Z,66.23
2023-05-19T20:13:53.829Z,66.75
2023-05-19T20:16:22.428Z,66.86
2023-05-19T20:18:51.694Z,67.06
2023-05-19T20:21:20.504Z,67.50
2023-05-19T20:23:50.442Z,67.12
2023-05-19T20:26:18.956Z,66.93
2023-05-19T20:28:47.932Z,67.63
2023-05-19T20:31:16.565Z,68.05
2023-05-19T20:33:45.223Z,68.03
2023-05-19T20:36:13.857Z,68.18
2023-05-19T20:38:42.502Z,68.69
2023-05-19T20:41:11.437Z,68.73
2023-05-19T20:43:40.118Z,68.79
2023-05-19T20:46:08.832Z,68.93
2023-05-19T20:48:37.646Z,69.50
2023-05-19T20:51:06.417Z,69.91
2023-05-19T20:53:35.236Z,70.49
2023-05-19T20:56:05.293Z,70.32
2023-05-19T20:58:34.351Z,70.63
2023-05-19T21:01:03.304Z,70.91
2023-05-19T21:03:32.229Z,71.31
2023-05-19T21:06:01.277Z,71.82
2023-05-19T21:08:29.889Z,71.85
2023-05-19T21:10:58.127Z,72.10
2023-05-19T21:13:26.781Z,72.74
2023-05-19T21:15:57.115Z,73.01
2023-05-19T21:18:25.393Z,72.81
2023-05-19T21:20:53.959Z,72.88
2023-05-19T21:23:22.723Z,72.95
2023-05-19T21:25:52.121Z,73.53
2023-05-19T21:28:20.425Z,73.87
2023-05-19T21:30:50.066Z,74.10
2023-05-19T21:33:18.854Z,74.45
2023-05-19T21:35:47.534Z,74.37
2023-05-19T21:40:51.160Z,75.05
2023-05-19T21:43:21.890Z,75.74
2023-05-19T21:45:50.554Z,75.45
2023-05-19T21:48:19.327Z,75.62
2023-05-19T21:50:47.531Z,75.78
2023-05-19T21:53:15.876Z,75.53
2023-05-19T21:55:44.635Z,75.82
2023-05-19T21:58:13.397Z,76.00
2023-05-19T22:00:42.084Z,76.63
2023-05-19T22:03:10.285Z,76.85
2023-05-19T22:05:38.768Z,76.75
2023-05-19T22:08:07.427Z,76.95
2023-05-19T22:10:37.350Z,77.13
2023-05-19T22:13:06.012Z,77.75
2023-05-19T22:15:34.152Z,77.66
2023-05-19T22:18:02.361Z,77.82
2023-05-19T22:20:31.024Z,77.72
2023-05-19T22:23:01.234Z,77.97
2023-05-19T22:25:29.573Z,77.99
2023-05-19T22:27:59.049Z,78.14
2023-05-19T22:30:27.602Z,78.39
2023-05-19T22:32:56.523Z,78.59
2023-05-19T22:35:24.936Z,78.34
2023-05-19T22:37:53.110Z,78.33
2023-05-19T22:40:21.937Z,78.17
2023-05-19T22:42:50.769Z,78.21
2023-05-19T22:45:19.605Z,78.64
2023-05-19T22:47:48.506Z,78.65
2023-05-19T22:50:17.499Z,78.88
2023-05-19T22:52:46.106Z,78.84
2023-05-19T22:55:14.424Z,78.58
2023-05-19T22:57:42.596Z,78.55
2023-05-19T23:00:14.189Z,78.80
2023-05-19T23:02:43.438Z,78.83
2023-05-19T23:05:12.356Z,78.98
2023-05-19T23:07:40.909Z,78.68
2023-05-19T23:10:09.753Z,79.03
2023-05-19T23:12:38.401Z,79.15
2023-05-19T23:15:08.568Z,79.53
2023-05-19T23:17:37.385Z,79.58
2023-05-19T23:20:06.397Z,79.81
2023-05-19T23:22:34.709Z,79.82
2023-05-19T23:25:07.916Z,79.61
2023-05-19T23:27:37.414Z,79.59
2023-05-19T23:30:06.651Z,79.81
2023-05-19T23:32:35.247Z,79.61
2023-05-19T23:35:18.351Z,79.75
2023-05-19T23:37:46.901Z,79.84
2023-05-19T23:40:16.336Z,79.99
2023-05-19T23:42:44.899Z,79.83
2023-05-19T23:45:13.790Z,80.31
2023-05-19T23:47:42.516Z,80.32
2023-05-19T23:50:11.527Z,79.90
2023-05-19T23:52:40.298Z,80.46
2023-05-19T23:55:09.944Z,80.01
2023-05-19T23:57:38.442Z,80.69
